sensor_id;sensor_type;location;lat;lon;timestamp;P1;durP1;ratioP1;P2;durP2;ratioP2
36653;SDS011;22650;49.350;20.898;2023-12-20T00:01:41;1433.72;;;999.90;;
36653;SDS011;22650;49.350;20.898;2023-12-20T00:04:15;1447.40;;;999.90;;
36653;SDS011;22650;49.350;20.898;2023-12-20T00:06:50;1370.28;;;999.90;;
36653;SDS011;22650;49.350;20.898;2023-12-20T00:09:24;1440.43;;;999.90;;
36653;SDS011;22650;49.350;20.898;2023-12-20T00:11:57;1343.55;;;999.90;;
36653;SDS011;22650;49.350;20.898;2023-12-20T00:14:31;1437.35;;;999.90;;
36653;SDS011;22650;49.350;20.898;2023-12-20T00:17:05;1409.20;;;999.90;;
36653;SDS011;22650;49.350;20.898;2023-12-20T00:19:39;1206.25;;;999.90;;
36653;SDS011;22650;49.350;20.898;2023-12-20T00:22:14;1192.65;;;996.20;;
36653;SDS011;22650;49.350;20.898;2023-12-20T00:24:48;1258.90;;;999.90;;
36653;SDS011;22650;49.350;20.898;2023-12-20T00:27:22;1308.88;;;999.90;;
36653;SDS011;22650;49.350;20.898;2023-12-20T00:29:56;1301.70;;;999.90;;
36653;SDS011;22650;49.350;20.898;2023-12-20T00:32:29;1079.90;;;950.45;;
36653;SDS011;22650;49.350;20.898;2023-12-20T00:35:03;1203.07;;;998.60;;
36653;SDS011;22650;49.350;20.898;2023-12-20T00:37:39;1245.35;;;999.63;;
36653;SDS011;22650;49.350;20.898;2023-12-20T00:40:12;1304.45;;;999.90;;
36653;SDS011;22650;49.350;20.898;2023-12-20T00:42:47;1253.93;;;999.90;;
36653;SDS011;22650;49.350;20.898;2023-12-20T00:45:20;1267.43;;;999.90;;
36653;SDS011;22650;49.350;20.898;2023-12-20T00:47:54;1227.57;;;999.85;;
36653;SDS011;22650;49.350;20.898;2023-12-20T00:50:27;1228.85;;;999.90;;
36653;SDS011;22650;49.350;20.898;2023-12-20T00:53:03;1253.30;;;999.90;;
36653;SDS011;22650;49.350;20.898;2023-12-20T00:55:37;1228.70;;;999.90;;
36653;SDS011;22650;49.350;20.898;2023-12-20T00:58:12;1192.90;;;998.35;;
36653;SDS011;22650;49.350;20.898;2023-12-20T01:00:47;1177.57;;;999.90;;
36653;SDS011;22650;49.350;20.898;2023-12-20T01:03:21;1161.40;;;992.13;;
36653;SDS011;22650;49.350;20.898;2023-12-20T01:05:55;1134.55;;;992.83;;
36653;SDS011;22650;49.350;20.898;2023-12-20T01:08:30;1198.28;;;995.17;;
36653;SDS011;22650;49.350;20.898;2023-12-20T01:11:04;1146.55;;;988.70;;
36653;SDS011;22650;49.350;20.898;2023-12-20T01:13:38;1191.40;;;993.65;;
36653;SDS011;22650;49.350;20.898;2023-12-20T01:16:11;1055.00;;;941.90;;
36653;SDS011;22650;49.350;20.898;2023-12-20T01:18:45;1158.13;;;990.25;;
36653;SDS011;22650;49.350;20.898;2023-12-20T01:21:19;1071.10;;;952.95;;
36653;SDS011;22650;49.350;20.898;2023-12-20T01:23:54;1104.07;;;972.38;;
36653;SDS011;22650;49.350;20.898;2023-12-20T01:26:27;1070.75;;;958.80;;
36653;SDS011;22650;49.350;20.898;2023-12-20T01:29:01;1076.53;;;961.35;;
36653;SDS011;22650;49.350;20.898;2023-12-20T01:31:35;1104.20;;;962.65;;
36653;SDS011;22650;49.350;20.898;2023-12-20T01:34:08;1064.47;;;942.92;;
36653;SDS011;22650;49.350;20.898;2023-12-20T01:36:42;1038.25;;;929.50;;
36653;SDS011;22650;49.350;20.898;2023-12-20T01:39:17;1077.13;;;956.42;;
36653;SDS011;22650;49.350;20.898;2023-12-20T01:42:00;1057.38;;;946.78;;
36653;SDS011;22650;49.350;20.898;2023-12-20T01:44:34;1063.30;;;949.70;;
36653;SDS011;22650;49.350;20.898;2023-12-20T01:47:07;1060.97;;;946.35;;
36653;SDS011;22650;49.350;20.898;2023-12-20T01:49:41;1034.45;;;925.22;;
36653;SDS011;22650;49.350;20.898;2023-12-20T01:52:16;1087.50;;;970.45;;
36653;SDS011;22650;49.350;20.898;2023-12-20T01:54:51;1101.63;;;982.97;;
36653;SDS011;22650;49.350;20.898;2023-12-20T01:57:26;1047.90;;;936.88;;
36653;SDS011;22650;49.350;20.898;2023-12-20T02:00:00;1077.38;;;961.10;;
36653;SDS011;22650;49.350;20.898;2023-12-20T02:02:35;1106.35;;;979.10;;
36653;SDS011;22650;49.350;20.898;2023-12-20T02:05:12;1089.20;;;968.47;;
36653;SDS011;22650;49.350;20.898;2023-12-20T02:07:46;1107.10;;;968.28;;
36653;SDS011;22650;49.350;20.898;2023-12-20T02:10:21;1043.25;;;925.90;;
36653;SDS011;22650;49.350;20.898;2023-12-20T02:12:56;1134.07;;;983.08;;
36653;SDS011;22650;49.350;20.898;2023-12-20T02:15:30;1062.57;;;940.80;;
36653;SDS011;22650;49.350;20.898;2023-12-20T02:18:04;1179.00;;;996.72;;
36653;SDS011;22650;49.350;20.898;2023-12-20T02:20:38;1104.65;;;974.70;;
36653;SDS011;22650;49.350;20.898;2023-12-20T02:23:13;1122.65;;;975.38;;
36653;SDS011;22650;49.350;20.898;2023-12-20T02:25:47;1129.32;;;974.97;;
36653;SDS011;22650;49.350;20.898;2023-12-20T02:28:20;1100.30;;;957.92;;
36653;SDS011;22650;49.350;20.898;2023-12-20T02:30:56;1103.63;;;965.97;;
36653;SDS011;22650;49.350;20.898;2023-12-20T02:33:30;1117.13;;;985.83;;
36653;SDS011;22650;49.350;20.898;2023-12-20T02:36:04;1092.93;;;962.00;;
36653;SDS011;22650;49.350;20.898;2023-12-20T02:38:40;1075.07;;;955.38;;
36653;SDS011;22650;49.350;20.898;2023-12-20T02:41:14;1132.72;;;987.10;;
36653;SDS011;22650;49.350;20.898;2023-12-20T02:43:49;1045.03;;;929.85;;
36653;SDS011;22650;49.350;20.898;2023-12-20T02:46:23;1040.72;;;931.25;;
36653;SDS011;22650;49.350;20.898;2023-12-20T02:48:57;1129.10;;;990.35;;
36653;SDS011;22650;49.350;20.898;2023-12-20T02:51:30;1073.63;;;959.55;;
36653;SDS011;22650;49.350;20.898;2023-12-20T02:54:05;1103.93;;;981.05;;
36653;SDS011;22650;49.350;20.898;2023-12-20T02:56:39;1059.10;;;947.30;;
36653;SDS011;22650;49.350;20.898;2023-12-20T02:59:13;1046.80;;;937.97;;
36653;SDS011;22650;49.350;20.898;2023-12-20T03:01:46;1050.15;;;938.85;;
36653;SDS011;22650;49.350;20.898;2023-12-20T03:04:21;1095.70;;;976.05;;
36653;SDS011;22650;49.350;20.898;2023-12-20T03:06:55;1078.95;;;963.92;;
36653;SDS011;22650;49.350;20.898;2023-12-20T03:09:30;1093.72;;;976.50;;
36653;SDS011;22650;49.350;20.898;2023-12-20T03:12:23;1023.90;;;922.22;;
36653;SDS011;22650;49.350;20.898;2023-12-20T03:14:57;1037.07;;;932.20;;
36653;SDS011;22650;49.350;20.898;2023-12-20T03:17:31;1018.63;;;917.03;;
36653;SDS011;22650;49.350;20.898;2023-12-20T03:20:05;959.42;;;865.33;;
36653;SDS011;22650;49.350;20.898;2023-12-20T03:22:40;1028.20;;;921.10;;
36653;SDS011;22650;49.350;20.898;2023-12-20T03:25:15;1021.40;;;918.58;;
36653;SDS011;22650;49.350;20.898;2023-12-20T03:27:48;955.28;;;863.92;;
36653;SDS011;22650;49.350;20.898;2023-12-20T03:30:22;950.47;;;860.42;;
36653;SDS011;22650;49.350;20.898;2023-12-20T03:32:56;921.30;;;837.05;;
36653;SDS011;22650;49.350;20.898;2023-12-20T03:35:29;1019.15;;;918.60;;
36653;SDS011;22650;49.350;20.898;2023-12-20T03:38:03;1035.18;;;926.50;;
36653;SDS011;22650;49.350;20.898;2023-12-20T03:40:38;963.30;;;868.83;;
36653;SDS011;22650;49.350;20.898;2023-12-20T03:43:12;1031.65;;;927.95;;
36653;SDS011;22650;49.350;20.898;2023-12-20T03:45:45;1016.58;;;913.45;;
36653;SDS011;22650;49.350;20.898;2023-12-20T03:48:19;1055.15;;;945.60;;
36653;SDS011;22650;49.350;20.898;2023-12-20T03:50:53;1029.15;;;923.20;;
36653;SDS011;22650;49.350;20.898;2023-12-20T03:53:27;1039.85;;;927.25;;
36653;SDS011;22650;49.350;20.898;2023-12-20T03:56:02;1012.53;;;911.42;;
36653;SDS011;22650;49.350;20.898;2023-12-20T03:58:36;1086.00;;;968.88;;
36653;SDS011;22650;49.350;20.898;2023-12-20T04:01:09;1058.28;;;945.45;;
36653;SDS011;22650;49.350;20.898;2023-12-20T04:03:44;1085.80;;;966.05;;
36653;SDS011;22650;49.350;20.898;2023-12-20T04:06:17;1117.00;;;989.58;;
36653;SDS011;22650;49.350;20.898;2023-12-20T04:08:51;1147.82;;;985.05;;
36653;SDS011;22650;49.350;20.898;2023-12-20T04:11:26;1100.70;;;962.47;;
36653;SDS011;22650;49.350;20.898;2023-12-20T04:14:00;1145.90;;;999.38;;
36653;SDS011;22650;49.350;20.898;2023-12-20T04:19:07;1141.55;;;974.15;;
36653;SDS011;22650;49.350;20.898;2023-12-20T04:21:41;1121.78;;;979.65;;
36653;SDS011;22650;49.350;20.898;2023-12-20T04:24:15;1137.30;;;987.60;;
36653;SDS011;22650;49.350;20.898;2023-12-20T04:26:50;1092.72;;;956.97;;
36653;SDS011;22650;49.350;20.898;2023-12-20T04:29:23;1060.45;;;944.53;;
36653;SDS011;22650;49.350;20.898;2023-12-20T04:31:57;1133.68;;;999.67;;
36653;SDS011;22650;49.350;20.898;2023-12-20T04:34:30;1091.60;;;976.08;;
36653;SDS011;22650;49.350;20.898;2023-12-20T04:37:04;1098.32;;;979.03;;
36653;SDS011;22650;49.350;20.898;2023-12-20T04:39:38;1105.13;;;985.13;;
36653;SDS011;22650;49.350;20.898;2023-12-20T04:42:14;1067.00;;;952.63;;
36653;SDS011;22650;49.350;20.898;2023-12-20T04:44:47;1047.70;;;936.60;;
36653;SDS011;22650;49.350;20.898;2023-12-20T04:47:21;1071.28;;;959.75;;
36653;SDS011;22650;49.350;20.898;2023-12-20T04:49:55;1082.20;;;966.67;;
36653;SDS011;22650;49.350;20.898;2023-12-20T04:52:29;1032.93;;;927.85;;
36653;SDS011;22650;49.350;20.898;2023-12-20T04:55:03;1033.80;;;931.88;;
36653;SDS011;22650;49.350;20.898;2023-12-20T04:57:38;1012.42;;;908.63;;
36653;SDS011;22650;49.350;20.898;2023-12-20T05:00:12;1037.82;;;935.00;;
36653;SDS011;22650;49.350;20.898;2023-12-20T05:02:47;1010.28;;;907.00;;
36653;SDS011;22650;49.350;20.898;2023-12-20T05:05:20;1018.67;;;918.17;;
36653;SDS011;22650;49.350;20.898;2023-12-20T05:07:54;1031.07;;;928.33;;
36653;SDS011;22650;49.350;20.898;2023-12-20T05:10:28;1004.53;;;903.63;;
36653;SDS011;22650;49.350;20.898;2023-12-20T05:13:03;1021.92;;;918.63;;
36653;SDS011;22650;49.350;20.898;2023-12-20T05:15:37;1032.72;;;929.42;;
36653;SDS011;22650;49.350;20.898;2023-12-20T05:18:10;1005.88;;;905.78;;
36653;SDS011;22650;49.350;20.898;2023-12-20T05:20:44;1012.13;;;912.78;;
36653;SDS011;22650;49.350;20.898;2023-12-20T05:23:18;1066.70;;;962.33;;
36653;SDS011;22650;49.350;20.898;2023-12-20T05:25:52;1038.70;;;938.50;;
36653;SDS011;22650;49.350;20.898;2023-12-20T05:28:27;999.25;;;901.85;;
36653;SDS011;22650;49.350;20.898;2023-12-20T05:31:00;957.10;;;868.75;;
36653;SDS011;22650;49.350;20.898;2023-12-20T05:33:35;981.95;;;892.78;;
36653;SDS011;22650;49.350;20.898;2023-12-20T05:36:09;983.78;;;893.95;;
36653;SDS011;22650;49.350;20.898;2023-12-20T05:38:45;930.55;;;843.58;;
36653;SDS011;22650;49.350;20.898;2023-12-20T05:41:18;954.13;;;866.90;;
36653;SDS011;22650;49.350;20.898;2023-12-20T05:43:57;978.50;;;886.40;;
36653;SDS011;22650;49.350;20.898;2023-12-20T05:46:31;954.75;;;867.85;;
36653;SDS011;22650;49.350;20.898;2023-12-20T05:49:04;879.05;;;802.13;;
36653;SDS011;22650;49.350;20.898;2023-12-20T05:51:38;936.30;;;853.05;;
36653;SDS011;22650;49.350;20.898;2023-12-20T05:54:12;913.85;;;833.25;;
36653;SDS011;22650;49.350;20.898;2023-12-20T05:56:45;924.47;;;842.28;;
36653;SDS011;22650;49.350;20.898;2023-12-20T05:59:20;879.95;;;799.17;;
36653;SDS011;22650;49.350;20.898;2023-12-20T06:01:54;883.22;;;806.28;;
36653;SDS011;22650;49.350;20.898;2023-12-20T06:04:30;924.08;;;841.78;;
36653;SDS011;22650;49.350;20.898;2023-12-20T06:07:04;903.58;;;819.38;;
36653;SDS011;22650;49.350;20.898;2023-12-20T06:09:38;922.83;;;837.60;;
36653;SDS011;22650;49.350;20.898;2023-12-20T06:12:11;931.17;;;843.17;;
36653;SDS011;22650;49.350;20.898;2023-12-20T06:14:46;929.10;;;844.63;;
36653;SDS011;22650;49.350;20.898;2023-12-20T06:17:20;939.75;;;853.65;;
36653;SDS011;22650;49.350;20.898;2023-12-20T06:19:53;946.75;;;859.90;;
36653;SDS011;22650;49.350;20.898;2023-12-20T06:22:27;907.80;;;824.40;;
36653;SDS011;22650;49.350;20.898;2023-12-20T06:25:01;914.80;;;828.47;;
36653;SDS011;22650;49.350;20.898;2023-12-20T06:27:35;924.33;;;838.17;;
36653;SDS011;22650;49.350;20.898;2023-12-20T06:30:11;899.97;;;818.50;;
36653;SDS011;22650;49.350;20.898;2023-12-20T06:32:45;908.08;;;824.30;;
36653;SDS011;22650;49.350;20.898;2023-12-20T06:35:19;953.13;;;865.58;;
36653;SDS011;22650;49.350;20.898;2023-12-20T06:37:53;920.00;;;835.78;;
36653;SDS011;22650;49.350;20.898;2023-12-20T06:40:26;888.88;;;807.55;;
36653;SDS011;22650;49.350;20.898;2023-12-20T06:43:00;969.45;;;880.10;;
36653;SDS011;22650;49.350;20.898;2023-12-20T06:45:48;850.08;;;774.22;;
36653;SDS011;22650;49.350;20.898;2023-12-20T06:48:22;898.58;;;816.83;;
36653;SDS011;22650;49.350;20.898;2023-12-20T06:50:56;896.22;;;812.45;;
36653;SDS011;22650;49.350;20.898;2023-12-20T06:53:30;920.47;;;838.45;;
36653;SDS011;22650;49.350;20.898;2023-12-20T06:56:04;895.72;;;812.72;;
36653;SDS011;22650;49.350;20.898;2023-12-20T06:58:39;917.95;;;834.30;;
36653;SDS011;22650;49.350;20.898;2023-12-20T07:01:14;894.30;;;815.20;;
36653;SDS011;22650;49.350;20.898;2023-12-20T07:03:48;877.95;;;795.63;;
36653;SDS011;22650;49.350;20.898;2023-12-20T07:06:22;926.33;;;838.33;;
36653;SDS011;22650;49.350;20.898;2023-12-20T07:08:57;901.70;;;820.47;;
36653;SDS011;22650;49.350;20.898;2023-12-20T07:11:31;914.25;;;831.88;;
36653;SDS011;22650;49.350;20.898;2023-12-20T07:14:04;942.25;;;852.92;;
36653;SDS011;22650;49.350;20.898;2023-12-20T07:16:39;916.95;;;828.05;;
36653;SDS011;22650;49.350;20.898;2023-12-20T07:19:13;958.67;;;866.58;;
36653;SDS011;22650;49.350;20.898;2023-12-20T07:21:47;948.00;;;859.28;;
36653;SDS011;22650;49.350;20.898;2023-12-20T07:24:21;945.30;;;851.20;;
36653;SDS011;22650;49.350;20.898;2023-12-20T07:26:54;965.13;;;872.53;;
36653;SDS011;22650;49.350;20.898;2023-12-20T07:29:28;897.65;;;814.80;;
36653;SDS011;22650;49.350;20.898;2023-12-20T07:32:04;944.67;;;855.63;;
36653;SDS011;22650;49.350;20.898;2023-12-20T07:34:38;931.63;;;842.63;;
36653;SDS011;22650;49.350;20.898;2023-12-20T07:37:12;919.35;;;833.42;;
36653;SDS011;22650;49.350;20.898;2023-12-20T07:39:46;927.08;;;841.55;;
36653;SDS011;22650;49.350;20.898;2023-12-20T07:42:19;931.45;;;841.95;;
36653;SDS011;22650;49.350;20.898;2023-12-20T07:44:54;899.47;;;814.22;;
36653;SDS011;22650;49.350;20.898;2023-12-20T07:47:29;928.95;;;840.05;;
36653;SDS011;22650;49.350;20.898;2023-12-20T07:50:03;897.53;;;815.83;;
36653;SDS011;22650;49.350;20.898;2023-12-20T07:52:37;943.03;;;852.10;;
36653;SDS011;22650;49.350;20.898;2023-12-20T07:55:11;930.92;;;841.55;;
36653;SDS011;22650;49.350;20.898;2023-12-20T07:57:44;969.33;;;875.65;;
36653;SDS011;22650;49.350;20.898;2023-12-20T08:00:19;992.00;;;894.67;;
36653;SDS011;22650;49.350;20.898;2023-12-20T08:02:53;950.97;;;860.35;;
36653;SDS011;22650;49.350;20.898;2023-12-20T08:05:27;998.58;;;899.97;;
36653;SDS011;22650;49.350;20.898;2023-12-20T08:08:01;1016.13;;;912.03;;
36653;SDS011;22650;49.350;20.898;2023-12-20T08:10:35;1040.47;;;933.13;;
36653;SDS011;22650;49.350;20.898;2023-12-20T08:13:08;1041.07;;;930.53;;
36653;SDS011;22650;49.350;20.898;2023-12-20T08:15:42;1058.35;;;946.45;;
36653;SDS011;22650;49.350;20.898;2023-12-20T08:18:17;1081.13;;;953.00;;
36653;SDS011;22650;49.350;20.898;2023-12-20T08:20:51;1120.35;;;989.13;;
36653;SDS011;22650;49.350;20.898;2023-12-20T08:23:25;1094.63;;;981.47;;
36653;SDS011;22650;49.350;20.898;2023-12-20T08:26:03;1096.07;;;980.70;;
36653;SDS011;22650;49.350;20.898;2023-12-20T08:28:38;1112.95;;;992.45;;
36653;SDS011;22650;49.350;20.898;2023-12-20T08:31:13;1102.72;;;983.63;;
36653;SDS011;22650;49.350;20.898;2023-12-20T08:33:49;1121.68;;;997.80;;
36653;SDS011;22650;49.350;20.898;2023-12-20T08:36:25;1060.90;;;952.42;;
36653;SDS011;22650;49.350;20.898;2023-12-20T08:38:58;1120.18;;;997.33;;
36653;SDS011;22650;49.350;20.898;2023-12-20T08:41:33;1138.60;;;999.90;;
36653;SDS011;22650;49.350;20.898;2023-12-20T08:44:08;1137.97;;;998.95;;
36653;SDS011;22650;49.350;20.898;2023-12-20T08:46:43;1137.72;;;999.90;;
36653;SDS011;22650;49.350;20.898;2023-12-20T08:49:22;1133.38;;;999.90;;
36653;SDS011;22650;49.350;20.898;2023-12-20T08:52:00;1117.18;;;997.95;;
36653;SDS011;22650;49.350;20.898;2023-12-20T08:54:34;1123.97;;;997.40;;
36653;SDS011;22650;49.350;20.898;2023-12-20T08:57:07;1120.40;;;995.33;;
36653;SDS011;22650;49.350;20.898;2023-12-20T08:59:41;1188.63;;;999.90;;
36653;SDS011;22650;49.350;20.898;2023-12-20T09:02:14;1148.70;;;999.90;;
36653;SDS011;22650;49.350;20.898;2023-12-20T09:04:50;1135.07;;;999.90;;
36653;SDS011;22650;49.350;20.898;2023-12-20T09:07:25;1129.32;;;999.03;;
36653;SDS011;22650;49.350;20.898;2023-12-20T09:09:59;1128.95;;;999.10;;
36653;SDS011;22650;49.350;20.898;2023-12-20T09:12:33;1172.45;;;999.90;;
36653;SDS011;22650;49.350;20.898;2023-12-20T09:15:07;1137.03;;;999.90;;
36653;SDS011;22650;49.350;20.898;2023-12-20T09:17:41;1163.70;;;999.55;;
36653;SDS011;22650;49.350;20.898;2023-12-20T09:20:17;1146.97;;;997.28;;
36653;SDS011;22650;49.350;20.898;2023-12-20T09:22:51;1135.78;;;999.90;;
36653;SDS011;22650;49.350;20.898;2023-12-20T09:25:25;1136.85;;;999.90;;
36653;SDS011;22650;49.350;20.898;2023-12-20T09:27:59;1155.55;;;999.90;;
36653;SDS011;22650;49.350;20.898;2023-12-20T09:30:32;1108.20;;;987.35;;
36653;SDS011;22650;49.350;20.898;2023-12-20T09:33:07;1110.45;;;990.80;;
36653;SDS011;22650;49.350;20.898;2023-12-20T09:35:42;1093.05;;;970.13;;
36653;SDS011;22650;49.350;20.898;2023-12-20T09:38:16;1048.40;;;938.00;;
36653;SDS011;22650;49.350;20.898;2023-12-20T09:40:50;1097.85;;;983.33;;
36653;SDS011;22650;49.350;20.898;2023-12-20T09:43:24;1109.57;;;985.83;;
36653;SDS011;22650;49.350;20.898;2023-12-20T09:46:00;1055.53;;;944.83;;
36653;SDS011;22650;49.350;20.898;2023-12-20T09:48:38;1068.68;;;954.80;;
36653;SDS011;22650;49.350;20.898;2023-12-20T09:51:15;1162.53;;;999.90;;
36653;SDS011;22650;49.350;20.898;2023-12-20T09:53:49;1070.90;;;956.42;;
36653;SDS011;22650;49.350;20.898;2023-12-20T09:56:25;1231.18;;;999.90;;
36653;SDS011;22650;49.350;20.898;2023-12-20T09:58:59;1108.20;;;985.67;;
36653;SDS011;22650;49.350;20.898;2023-12-20T10:01:33;1155.55;;;997.42;;
36653;SDS011;22650;49.350;20.898;2023-12-20T10:04:09;1069.00;;;950.60;;
36653;SDS011;22650;49.350;20.898;2023-12-20T10:07:03;991.78;;;892.95;;
36653;SDS011;22650;49.350;20.898;2023-12-20T10:09:38;968.25;;;869.42;;
36653;SDS011;22650;49.350;20.898;2023-12-20T10:12:11;940.92;;;848.05;;
36653;SDS011;22650;49.350;20.898;2023-12-20T10:14:45;946.70;;;856.17;;
36653;SDS011;22650;49.350;20.898;2023-12-20T10:17:19;981.53;;;882.15;;
36653;SDS011;22650;49.350;20.898;2023-12-20T10:19:55;914.08;;;830.20;;
36653;SDS011;22650;49.350;20.898;2023-12-20T10:22:30;973.72;;;876.40;;
36653;SDS011;22650;49.350;20.898;2023-12-20T10:25:05;1036.82;;;928.47;;
36653;SDS011;22650;49.350;20.898;2023-12-20T10:27:40;1099.72;;;965.25;;
36653;SDS011;22650;49.350;20.898;2023-12-20T10:30:14;1235.30;;;974.45;;
36653;SDS011;22650;49.350;20.898;2023-12-20T10:32:47;1031.45;;;920.15;;
36653;SDS011;22650;49.350;20.898;2023-12-20T10:35:21;1081.85;;;963.10;;
36653;SDS011;22650;49.350;20.898;2023-12-20T10:37:56;1083.32;;;956.08;;
36653;SDS011;22650;49.350;20.898;2023-12-20T10:40:31;1164.80;;;996.53;;
36653;SDS011;22650;49.350;20.898;2023-12-20T10:43:10;1153.97;;;999.90;;
36653;SDS011;22650;49.350;20.898;2023-12-20T10:45:45;999.95;;;896.42;;
36653;SDS011;22650;49.350;20.898;2023-12-20T10:48:19;1009.08;;;903.03;;
36653;SDS011;22650;49.350;20.898;2023-12-20T10:51:01;1002.03;;;899.85;;
36653;SDS011;22650;49.350;20.898;2023-12-20T10:53:37;986.70;;;887.58;;
36653;SDS011;22650;49.350;20.898;2023-12-20T10:56:15;908.35;;;820.72;;
36653;SDS011;22650;49.350;20.898;2023-12-20T10:58:50;915.55;;;825.50;;
36653;SDS011;22650;49.350;20.898;2023-12-20T11:01:23;904.10;;;815.60;;
36653;SDS011;22650;49.350;20.898;2023-12-20T11:03:58;919.20;;;828.38;;
36653;SDS011;22650;49.350;20.898;2023-12-20T11:06:33;918.28;;;830.28;;
36653;SDS011;22650;49.350;20.898;2023-12-20T11:09:19;853.58;;;775.67;;
36653;SDS011;22650;49.350;20.898;2023-12-20T11:11:58;866.13;;;788.88;;
36653;SDS011;22650;49.350;20.898;2023-12-20T11:14:39;830.35;;;758.83;;
36653;SDS011;22650;49.350;20.898;2023-12-20T11:17:18;844.13;;;770.45;;
36653;SDS011;22650;49.350;20.898;2023-12-20T11:20:04;897.92;;;815.05;;
36653;SDS011;22650;49.350;20.898;2023-12-20T11:22:52;857.13;;;781.60;;
36653;SDS011;22650;49.350;20.898;2023-12-20T11:25:28;856.50;;;783.38;;
36653;SDS011;22650;49.350;20.898;2023-12-20T11:28:08;841.80;;;771.55;;
36653;SDS011;22650;49.350;20.898;2023-12-20T11:30:46;831.97;;;763.63;;
36653;SDS011;22650;49.350;20.898;2023-12-20T11:33:21;826.83;;;758.13;;
36653;SDS011;22650;49.350;20.898;2023-12-20T11:36:01;900.28;;;824.42;;
36653;SDS011;22650;49.350;20.898;2023-12-20T11:38:38;859.85;;;785.72;;
36653;SDS011;22650;49.350;20.898;2023-12-20T11:41:24;882.65;;;807.28;;
36653;SDS011;22650;49.350;20.898;2023-12-20T11:43:58;941.38;;;859.13;;
36653;SDS011;22650;49.350;20.898;2023-12-20T11:46:33;1005.15;;;913.20;;
36653;SDS011;22650;49.350;20.898;2023-12-20T11:49:07;1007.83;;;912.50;;
36653;SDS011;22650;49.350;20.898;2023-12-20T11:51:41;1028.22;;;934.65;;
36653;SDS011;22650;49.350;20.898;2023-12-20T11:54:15;996.38;;;904.05;;
36653;SDS011;22650;49.350;20.898;2023-12-20T11:56:51;946.67;;;859.17;;
36653;SDS011;22650;49.350;20.898;2023-12-20T11:59:24;959.40;;;870.90;;
36653;SDS011;22650;49.350;20.898;2023-12-20T12:01:58;971.60;;;882.08;;
36653;SDS011;22650;49.350;20.898;2023-12-20T12:04:34;932.05;;;845.80;;
36653;SDS011;22650;49.350;20.898;2023-12-20T12:07:08;973.97;;;884.65;;
36653;SDS011;22650;49.350;20.898;2023-12-20T12:09:42;951.80;;;864.70;;
36653;SDS011;22650;49.350;20.898;2023-12-20T12:12:17;939.83;;;852.50;;
36653;SDS011;22650;49.350;20.898;2023-12-20T12:14:52;953.47;;;864.55;;
36653;SDS011;22650;49.350;20.898;2023-12-20T12:17:26;938.20;;;855.05;;
36653;SDS011;22650;49.350;20.898;2023-12-20T12:20:03;967.85;;;879.17;;
36653;SDS011;22650;49.350;20.898;2023-12-20T12:22:38;976.45;;;887.53;;
36653;SDS011;22650;49.350;20.898;2023-12-20T12:25:13;946.05;;;857.58;;
36653;SDS011;22650;49.350;20.898;2023-12-20T12:27:49;916.42;;;831.72;;
36653;SDS011;22650;49.350;20.898;2023-12-20T12:30:24;967.28;;;879.80;;
36653;SDS011;22650;49.350;20.898;2023-12-20T12:33:03;947.17;;;862.75;;
36653;SDS011;22650;49.350;20.898;2023-12-20T12:35:55;1007.83;;;915.33;;
36653;SDS011;22650;49.350;20.898;2023-12-20T12:38:29;997.83;;;904.55;;
36653;SDS011;22650;49.350;20.898;2023-12-20T12:41:04;1008.47;;;911.88;;
36653;SDS011;22650;49.350;20.898;2023-12-20T12:43:38;996.65;;;903.08;;
36653;SDS011;22650;49.350;20.898;2023-12-20T12:46:12;1022.33;;;924.08;;
36653;SDS011;22650;49.350;20.898;2023-12-20T12:48:46;1021.88;;;924.63;;
36653;SDS011;22650;49.350;20.898;2023-12-20T12:51:22;1065.72;;;960.50;;
36653;SDS011;22650;49.350;20.898;2023-12-20T12:53:56;1012.03;;;917.67;;
36653;SDS011;22650;49.350;20.898;2023-12-20T12:56:29;1043.68;;;941.33;;
36653;SDS011;22650;49.350;20.898;2023-12-20T12:59:03;993.00;;;897.83;;
36653;SDS011;22650;49.350;20.898;2023-12-20T13:01:37;1016.17;;;918.33;;
36653;SDS011;22650;49.350;20.898;2023-12-20T13:04:11;1038.05;;;935.25;;
36653;SDS011;22650;49.350;20.898;2023-12-20T13:06:46;1067.78;;;961.38;;
36653;SDS011;22650;49.350;20.898;2023-12-20T13:09:20;1037.00;;;935.47;;
36653;SDS011;22650;49.350;20.898;2023-12-20T13:11:55;1054.80;;;949.97;;
36653;SDS011;22650;49.350;20.898;2023-12-20T13:14:29;1067.53;;;958.65;;
36653;SDS011;22650;49.350;20.898;2023-12-20T13:17:06;1047.18;;;940.80;;
36653;SDS011;22650;49.350;20.898;2023-12-20T13:19:41;1038.05;;;941.20;;
36653;SDS011;22650;49.350;20.898;2023-12-20T13:22:16;1080.68;;;972.28;;
36653;SDS011;22650;49.350;20.898;2023-12-20T13:24:50;1072.15;;;964.42;;
36653;SDS011;22650;49.350;20.898;2023-12-20T13:27:24;1074.63;;;964.92;;
36653;SDS011;22650;49.350;20.898;2023-12-20T13:29:58;1093.65;;;980.65;;
36653;SDS011;22650;49.350;20.898;2023-12-20T13:32:31;1052.85;;;945.78;;
36653;SDS011;22650;49.350;20.898;2023-12-20T13:35:06;1076.38;;;964.00;;
36653;SDS011;22650;49.350;20.898;2023-12-20T13:37:41;1083.82;;;973.50;;
36653;SDS011;22650;49.350;20.898;2023-12-20T13:40:17;1071.95;;;964.47;;
36653;SDS011;22650;49.350;20.898;2023-12-20T13:42:51;1089.15;;;974.42;;
36653;SDS011;22650;49.350;20.898;2023-12-20T13:45:26;1076.95;;;971.85;;
36653;SDS011;22650;49.350;20.898;2023-12-20T13:48:00;1100.22;;;986.28;;
36653;SDS011;22650;49.350;20.898;2023-12-20T13:50:34;1064.10;;;953.95;;
36653;SDS011;22650;49.350;20.898;2023-12-20T13:53:09;1099.15;;;984.20;;
36653;SDS011;22650;49.350;20.898;2023-12-20T13:55:44;1088.95;;;977.13;;
36653;SDS011;22650;49.350;20.898;2023-12-20T13:58:17;1098.47;;;973.35;;
36653;SDS011;22650;49.350;20.898;2023-12-20T14:00:52;1079.18;;;970.80;;
36653;SDS011;22650;49.350;20.898;2023-12-20T14:03:25;1103.55;;;974.65;;
36653;SDS011;22650;49.350;20.898;2023-12-20T14:05:59;1999.90;;;999.90;;
36653;SDS011;22650;49.350;20.898;2023-12-20T14:08:35;1231.32;;;999.90;;
36653;SDS011;22650;49.350;20.898;2023-12-20T14:11:09;1169.22;;;998.45;;
36653;SDS011;22650;49.350;20.898;2023-12-20T14:13:44;1194.35;;;997.97;;
36653;SDS011;22650;49.350;20.898;2023-12-20T14:16:18;1216.78;;;999.90;;
36653;SDS011;22650;49.350;20.898;2023-12-20T14:18:51;1305.28;;;999.90;;
36653;SDS011;22650;49.350;20.898;2023-12-20T14:21:29;1314.10;;;999.90;;